createdAt,value
2023-01-31T00:01:42.082Z,97603.30
2023-01-31T00:04:14.654Z,97604.02
2023-01-31T00:06:44.806Z,97604.98
2023-01-31T00:09:14.702Z,97609.80
2023-01-31T00:11:43.152Z,97614.63
2023-01-31T00:14:15.208Z,97616.67
2023-01-31T00:16:43.766Z,97611.04
2023-01-31T00:19:12.352Z,97609.61
2023-01-31T00:21:44.024Z,97602.60
2023-01-31T00:24:13.729Z,97604.17
2023-01-31T00:26:42.658Z,97605.65
2023-01-31T00:29:11.529Z,97611.66
2023-01-31T00:31:40.590Z,97612.10
2023-01-31T00:34:09.387Z,97610.55
2023-01-31T00:36:38.982Z,97606.39
2023-01-31T00:39:11.154Z,97609.52
2023-01-31T00:41:39.644Z,97615.00
2023-01-31T00:44:08.525Z,97616.20
2023-01-31T00:46:39.061Z,97617.16
2023-01-31T00:49:07.740Z,97612.35
2023-01-31T00:51:38.401Z,97613.73
2023-01-31T00:54:07.258Z,97614.17
2023-01-31T00:56:36.129Z,97617.92
2023-01-31T00:59:09.131Z,97630.02
2023-01-31T01:01:38.885Z,97625.70
2023-01-31T01:04:07.322Z,97624.58
2023-01-31T01:06:38.679Z,97630.48
2023-01-31T01:09:07.056Z,97631.17
2023-01-31T01:11:36.836Z,97630.31
2023-01-31T01:14:05.348Z,97630.54
2023-01-31T01:16:36.976Z,97630.48
2023-01-31T01:19:07.234Z,97627.13
2023-01-31T01:21:41.024Z,97631.02
2023-01-31T01:24:13.252Z,97634.77
2023-01-31T01:26:41.699Z,97633.63
2023-01-31T01:29:10.461Z,97629.35
2023-01-31T01:31:39.917Z,97636.66
2023-01-31T01:34:12.341Z,97636.31
2023-01-31T01:36:41.024Z,97638.89
2023-01-31T01:39:11.461Z,97637.70
2023-01-31T01:41:40.559Z,97635.64
2023-01-31T01:44:47.655Z,97636.14
2023-01-31T01:47:22.659Z,97639.89
2023-01-31T01:49:54.911Z,97641.91
2023-01-31T01:52:23.627Z,97651.70
2023-01-31T01:55:22.869Z,97655.85
2023-01-31T01:57:54.855Z,97654.67
2023-01-31T02:00:27.510Z,97653.59
2023-01-31T02:03:00.112Z,97657.22
2023-01-31T02:05:33.696Z,97656.15
2023-01-31T02:08:02.743Z,97665.45
2023-01-31T02:10:39.323Z,97662.78
2023-01-31T02:13:08.397Z,97662.08
2023-01-31T02:15:37.285Z,97662.59
2023-01-31T02:18:07.311Z,97659.86
2023-01-31T02:21:13.714Z,97658.48
2023-01-31T02:24:22.816Z,97659.35
2023-01-31T02:26:58.672Z,97656.29
2023-01-31T02:29:49.190Z,97659.33
2023-01-31T02:32:42.930Z,97661.57
2023-01-31T02:35:20.658Z,97657.77
2023-01-31T02:38:48.605Z,97662.24
2023-01-31T02:41:21.628Z,97666.15
2023-01-31T02:45:00.141Z,97663.98
2023-01-31T02:47:45.737Z,97666.52
2023-01-31T02:50:30.249Z,97673.82
2023-01-31T02:53:09.890Z,97670.55
2023-01-31T02:56:18.380Z,97669.26
2023-01-31T02:59:08.497Z,97671.63
2023-01-31T03:01:40.799Z,97663.21
2023-01-31T03:04:11.228Z,97663.69
2023-01-31T03:06:55.029Z,97673.11
2023-01-31T03:09:37.752Z,97675.02
2023-01-31T03:12:42.130Z,97680.89
2023-01-31T03:15:14.034Z,97679.90
2023-01-31T03:17:45.835Z,97684.63
2023-01-31T03:20:24.132Z,97687.81
2023-01-31T03:23:01.199Z,97688.91
2023-01-31T03:25:32.790Z,97686.80
2023-01-31T03:28:03.977Z,97690.84
2023-01-31T03:30:38.904Z,97689.13
2023-01-31T03:33:18.238Z,97693.23
2023-01-31T03:35:57.375Z,97691.47
2023-01-31T03:38:28.148Z,97691.59
2023-01-31T03:41:13.216Z,97692.60
2023-01-31T03:44:05.007Z,97686.89
2023-01-31T03:46:54.814Z,97688.30
2023-01-31T03:49:23.173Z,97689.92
2023-01-31T03:51:54.995Z,97688.77
2023-01-31T03:54:29.928Z,97687.92
2023-01-31T03:57:04.979Z,97685.55
2023-01-31T03:59:35.404Z,97693.23
2023-01-31T04:02:08.520Z,97695.49
2023-01-31T04:04:42.519Z,97692.66
2023-01-31T04:07:11.308Z,97694.17
2023-01-31T04:09:40.650Z,97695.84
2023-01-31T04:12:10.109Z,97697.91
2023-01-31T04:14:38.643Z,97693.61
2023-01-31T04:17:07.278Z,97699.23
2023-01-31T04:19:35.966Z,97698.61
2023-01-31T04:22:04.546Z,97705.27
2023-01-31T04:24:33.244Z,97702.86
2023-01-31T04:27:01.940Z,97700.34
2023-01-31T04:29:30.708Z,97703.07
2023-01-31T04:31:59.305Z,97702.88
2023-01-31T04:34:28.220Z,97701.77
2023-01-31T04:36:56.861Z,97702.80
2023-01-31T04:39:25.341Z,97705.66
2023-01-31T04:41:54.545Z,97704.77
2023-01-31T04:44:23.132Z,97707.48
2023-01-31T04:46:51.969Z,97706.84
2023-01-31T04:49:20.496Z,97712.20
2023-01-31T04:51:48.980Z,97711.19
2023-01-31T04:54:17.568Z,97715.54
2023-01-31T04:56:46.251Z,97711.14
2023-01-31T04:59:15.162Z,97711.45
2023-01-31T05:01:43.922Z,97713.69
2023-01-31T05:04:13.346Z,97723.16
2023-01-31T05:06:42.524Z,97724.66
2023-01-31T05:09:12.021Z,97737.74
2023-01-31T05:11:40.303Z,97742.77
2023-01-31T05:14:10.015Z,97742.52
2023-01-31T05:16:38.830Z,97744.58
2023-01-31T05:19:07.914Z,97743.30
2023-01-31T05:21:55.320Z,97744.02
2023-01-31T05:24:24.619Z,97744.52
2023-01-31T05:26:57.017Z,97748.17
2023-01-31T05:29:29.565Z,97752.16
2023-01-31T05:32:00.125Z,97754.92
2023-01-31T05:34:31.249Z,97758.19
2023-01-31T05:36:59.949Z,97754.82
2023-01-31T05:39:29.022Z,97762.45
2023-01-31T05:41:57.395Z,97757.34
2023-01-31T05:44:25.989Z,97759.42
2023-01-31T05:46:55.318Z,97765.08
2023-01-31T05:49:23.971Z,97764.50
2023-01-31T05:51:52.462Z,97764.66
2023-01-31T05:54:21.029Z,97762.83
2023-01-31T05:56:50.364Z,97763.04
2023-01-31T05:59:19.328Z,97760.93
2023-01-31T06:01:48.059Z,97764.89
2023-01-31T06:04:16.612Z,97769.94
2023-01-31T06:06:45.685Z,97773.88
2023-01-31T06:09:14.577Z,97777.90
2023-01-31T06:11:43.477Z,97782.14
2023-01-31T06:14:13.629Z,97781.21
2023-01-31T06:16:42.464Z,97779.63
2023-01-31T06:19:10.961Z,97781.11
2023-01-31T06:21:39.538Z,97787.84
2023-01-31T06:24:08.746Z,97788.34
2023-01-31T06:26:37.901Z,97792.88
2023-01-31T06:29:11.757Z,97791.81
2023-01-31T06:31:40.478Z,97795.74
2023-01-31T06:34:09.005Z,97796.70
2023-01-31T06:36:38.132Z,97798.92
2023-01-31T06:39:06.894Z,97801.95
2023-01-31T06:41:35.370Z,97806.33
2023-01-31T06:44:04.159Z,97800.53
2023-01-31T06:46:33.213Z,97803.88
2023-01-31T06:49:01.783Z,97802.80
2023-01-31T06:51:31.583Z,97800.62
2023-01-31T06:54:00.359Z,97804.45
2023-01-31T06:56:28.921Z,97806.36
2023-01-31T06:58:57.454Z,97809.35
2023-01-31T07:01:27.035Z,97808.88
2023-01-31T07:03:55.491Z,97815.64
2023-01-31T07:06:24.281Z,97812.38
2023-01-31T07:08:53.685Z,97812.88
2023-01-31T07:11:22.564Z,97816.31
2023-01-31T07:13:51.881Z,97816.39
2023-01-31T07:16:22.964Z,97813.85
2023-01-31T07:18:55.289Z,97814.83
2023-01-31T07:21:23.908Z,97816.63
2023-01-31T07:23:53.181Z,97814.63
2023-01-31T07:26:21.889Z,97819.69
2023-01-31T07:28:50.684Z,97820.91
2023-01-31T07:31:19.528Z,97823.71
2023-01-31T07:33:48.247Z,97823.97
2023-01-31T07:36:20.171Z,97823.69
2023-01-31T07:38:48.557Z,97826.51
2023-01-31T07:41:17.854Z,97829.85
2023-01-31T07:43:46.539Z,97833.90
2023-01-31T07:46:15.292Z,97841.59
2023-01-31T07:48:44.010Z,97844.07
2023-01-31T07:51:12.595Z,97844.76
2023-01-31T07:53:44.365Z,97847.41
2023-01-31T07:56:14.858Z,97851.66
2023-01-31T07:58:43.973Z,97850.93
2023-01-31T08:01:36.841Z,97853.25
2023-01-31T08:04:19.923Z,97852.67
2023-01-31T08:06:51.502Z,97858.67
2023-01-31T08:09:19.994Z,97856.05
2023-01-31T08:11:50.621Z,97867.50
2023-01-31T08:14:24.016Z,97873.27
2023-01-31T08:16:52.956Z,97875.81
2023-01-31T08:19:22.304Z,97882.14
2023-01-31T08:21:50.796Z,97879.05
2023-01-31T08:24:19.629Z,97883.45
2023-01-31T08:26:48.198Z,97880.23
2023-01-31T08:29:17.047Z,97885.42
2023-01-31T08:31:46.261Z,97889.80
2023-01-31T08:34:14.767Z,97886.44
2023-01-31T08:36:43.364Z,97881.93
2023-01-31T08:39:12.247Z,97884.44
2023-01-31T08:41:40.984Z,97889.48
2023-01-31T08:44:09.583Z,97894.55
2023-01-31T08:46:38.104Z,97894.06
2023-01-31T08:49:07.397Z,97899.00
2023-01-31T08:51:36.756Z,97896.55
2023-01-31T08:54:05.354Z,97898.34
2023-01-31T08:56:34.338Z,97903.36
2023-01-31T08:59:02.918Z,97898.36
2023-01-31T09:01:33.615Z,97902.62
2023-01-31T09:04:02.362Z,97908.96
2023-01-31T09:06:31.190Z,97912.60
2023-01-31T09:09:00.360Z,97909.36
2023-01-31T09:11:30.701Z,97909.90
2023-01-31T09:13:59.937Z,97907.58
2023-01-31T09:16:29.045Z,97900.07
2023-01-31T09:18:58.051Z,97909.61
2023-01-31T09:21:27.046Z,97908.41
2023-01-31T09:23:57.997Z,97911.44
2023-01-31T09:26:26.602Z,97909.12
2023-01-31T09:28:56.660Z,97914.72
2023-01-31T09:31:25.110Z,97913.88
2023-01-31T09:33:55.048Z,97915.72
2023-01-31T09:36:25.095Z,97921.20
2023-01-31T09:38:56.275Z,97913.34
2023-01-31T09:41:27.766Z,97919.58
2023-01-31T09:44:04.718Z,97923.87
2023-01-31T09:46:45.760Z,97923.98
2023-01-31T09:49:21.917Z,97919.92
2023-01-31T09:51:55.464Z,97925.96
2023-01-31T09:54:34.701Z,97927.22
2023-01-31T09:57:30.770Z,97927.19
2023-01-31T10:00:15.563Z,97924.34
2023-01-31T10:03:18.703Z,97922.94
2023-01-31T10:05:59.487Z,97922.56
2023-01-31T10:09:00.304Z,97921.91
2023-01-31T10:11:36.472Z,97926.48
2023-01-31T10:14:21.635Z,97925.88
2023-01-31T10:17:11.931Z,97929.58
2023-01-31T10:19:46.662Z,97933.00
2023-01-31T10:22:32.865Z,97930.48
2023-01-31T10:25:40.358Z,97934.08
2023-01-31T10:28:36.530Z,97934.70
2023-01-31T10:31:32.126Z,97925.91
2023-01-31T10:34:02.211Z,97926.36
2023-01-31T10:36:52.095Z,97920.60
2023-01-31T10:39:34.090Z,97920.31
2023-01-31T10:42:02.531Z,97922.80
2023-01-31T10:44:53.068Z,97922.64
2023-01-31T10:47:25.031Z,97917.80
2023-01-31T10:49:53.685Z,97918.20
2023-01-31T10:52:31.825Z,97916.98
2023-01-31T10:55:15.790Z,97917.91
2023-01-31T10:57:44.517Z,97916.29
2023-01-31T11:00:20.101Z,97918.23
2023-01-31T11:02:48.702Z,97920.27
2023-01-31T11:05:20.862Z,97915.00
2023-01-31T11:07:50.880Z,97915.28
2023-01-31T11:10:26.755Z,97913.34
2023-01-31T11:12:55.203Z,97912.25
2023-01-31T11:17:44.917Z,97913.73
2023-01-31T11:20:45.019Z,97915.92
2023-01-31T11:23:18.445Z,97920.39
2023-01-31T11:25:50.919Z,97914.15
2023-01-31T11:28:41.092Z,97916.41
2023-01-31T11:31:19.708Z,97915.77
2023-01-31T11:34:05.293Z,97923.10
2023-01-31T11:36:42.173Z,97917.03
2023-01-31T11:39:34.237Z,97914.29
2023-01-31T11:42:07.311Z,97910.73
2023-01-31T11:44:35.793Z,97906.65
2023-01-31T11:47:05.712Z,97908.27
2023-01-31T11:49:40.453Z,97912.67
2023-01-31T11:52:19.013Z,97915.23
2023-01-31T11:54:52.096Z,97919.05
2023-01-31T11:57:37.484Z,97922.93
2023-01-31T12:00:09.089Z,97923.84
2023-01-31T12:02:41.572Z,97919.64
2023-01-31T12:05:14.574Z,97922.55
2023-01-31T12:07:48.298Z,97913.81
2023-01-31T12:10:28.382Z,97922.04
2023-01-31T12:13:18.605Z,97927.65
2023-01-31T12:16:04.141Z,97928.40
2023-01-31T12:18:36.084Z,97925.14
2023-01-31T12:21:29.803Z,97928.36
2023-01-31T12:24:05.514Z,97935.06
2023-01-31T12:26:57.546Z,97944.05
2023-01-31T12:30:05.144Z,97936.82
2023-01-31T12:32:52.305Z,97943.79
2023-01-31T12:35:32.919Z,97946.14
2023-01-31T12:38:09.878Z,97944.54
2023-01-31T12:40:44.391Z,97941.23
2023-01-31T12:43:19.056Z,97945.65
2023-01-31T12:45:53.926Z,97941.36
2023-01-31T12:48:26.865Z,97946.31
2023-01-31T12:51:17.587Z,97951.13
2023-01-31T12:54:16.879Z,97957.06
2023-01-31T12:56:52.168Z,97957.92
2023-01-31T12:59:27.131Z,97960.69
2023-01-31T13:02:08.018Z,97957.97
2023-01-31T13:05:09.472Z,97958.77
2023-01-31T13:07:57.113Z,97960.46
2023-01-31T13:10:30.817Z,97956.95
2023-01-31T13:12:59.329Z,97966.37
2023-01-31T13:15:41.532Z,97963.66
2023-01-31T13:18:09.972Z,97971.96
2023-01-31T13:20:47.164Z,97969.94
2023-01-31T13:23:25.244Z,97977.27
2023-01-31T13:26:04.487Z,97976.22
2023-01-31T13:28:38.529Z,97973.80
2023-01-31T13:31:10.453Z,97973.31
2023-01-31T13:33:48.714Z,97975.39
2023-01-31T13:36:25.651Z,97978.91
2023-01-31T13:38:54.479Z,97981.98
2023-01-31T13:41:42.915Z,97986.64
2023-01-31T13:44:13.439Z,97987.85
2023-01-31T13:46:54.555Z,97986.52
2023-01-31T13:49:27.612Z,97991.64
2023-01-31T13:52:00.977Z,97997.75
2023-01-31T13:54:46.248Z,97996.63
2023-01-31T13:57:47.541Z,98001.17
2023-01-31T14:00:44.963Z,97994.95
2023-01-31T14:03:18.965Z,97998.58
2023-01-31T14:05:52.167Z,97995.65
2023-01-31T14:08:37.643Z,97994.95
2023-01-31T14:11:16.220Z,97994.84
2023-01-31T14:14:20.559Z,97997.12
2023-01-31T14:16:52.836Z,98000.55
2023-01-31T14:19:22.558Z,97998.86
2023-01-31T14:21:52.268Z,97996.45
2023-01-31T14:24:42.377Z,98000.17
2023-01-31T14:27:21.897Z,98002.41
2023-01-31T14:30:20.325Z,98000.50
2023-01-31T14:33:11.087Z,98002.46
2023-01-31T14:36:07.758Z,98006.38
2023-01-31T14:38:46.235Z,98009.12
2023-01-31T14:41:33.083Z,98013.07
2023-01-31T14:44:30.419Z,98012.25
2023-01-31T14:47:44.760Z,98014.31
2023-01-31T14:50:24.913Z,98020.08
2023-01-31T14:53:18.399Z,98028.69
2023-01-31T14:56:00.101Z,98030.50
2023-01-31T14:58:30.291Z,98026.92
2023-01-31T15:01:01.139Z,98029.89
2023-01-31T15:03:32.097Z,98032.18
2023-01-31T15:06:13.264Z,98033.00
2023-01-31T15:08:43.083Z,98039.52
2023-01-31T15:11:13.361Z,98040.42
2023-01-31T15:13:45.448Z,98041.52
2023-01-31T15:16:33.458Z,98045.35
2023-01-31T15:19:11.588Z,98045.80
2023-01-31T15:21:46.105Z,98049.57
2023-01-31T15:24:19.564Z,98046.52
2023-01-31T15:26:48.876Z,98043.66
2023-01-31T15:29:28.107Z,98053.84
2023-01-31T15:31:59.814Z,98060.07
2023-01-31T15:34:33.092Z,98062.27
2023-01-31T15:37:20.619Z,98058.52
2023-01-31T15:40:00.096Z,98065.29
2023-01-31T15:42:30.524Z,98062.98
2023-01-31T15:45:17.342Z,98062.20
2023-01-31T15:48:05.918Z,98072.98
2023-01-31T15:50:37.907Z,98069.77
2023-01-31T15:53:13.193Z,98070.44
2023-01-31T15:55:41.629Z,98071.56
2023-01-31T15:58:20.143Z,98071.91
2023-01-31T16:00:59.823Z,98077.64
2023-01-31T16:03:30.340Z,98082.67
2023-01-31T16:05:59.329Z,98078.36
2023-01-31T16:08:37.837Z,98085.46
2023-01-31T16:11:09.959Z,98090.45
2023-01-31T16:13:40.138Z,98086.75
2023-01-31T16:16:14.760Z,98086.20
2023-01-31T16:18:54.908Z,98089.10
2023-01-31T16:21:24.905Z,98087.04
2023-01-31T16:24:09.900Z,98095.45
2023-01-31T16:27:00.573Z,98088.89
2023-01-31T16:29:39.916Z,98092.02
2023-01-31T16:32:16.202Z,98101.17
2023-01-31T16:34:44.659Z,98103.91
2023-01-31T16:37:17.039Z,98109.24
2023-01-31T16:39:48.108Z,98108.82
2023-01-31T16:42:16.443Z,98107.91
2023-01-31T16:44:45.942Z,98114.04
2023-01-31T16:47:39.423Z,98117.39
2023-01-31T16:50:24.720Z,98121.54
2023-01-31T16:53:17.347Z,98125.08
2023-01-31T16:55:48.296Z,98126.88
2023-01-31T16:58:44.089Z,98133.52
2023-01-31T17:01:13.986Z,98138.13
2023-01-31T17:03:42.598Z,98135.49
2023-01-31T17:06:18.855Z,98139.36
2023-01-31T17:08:47.639Z,98138.20
2023-01-31T17:18:13.024Z,98130.52
2023-01-31T17:20:42.409Z,98134.38
2023-01-31T17:23:11.794Z,98133.73
2023-01-31T17:25:41.421Z,98138.25
2023-01-31T17:28:10.003Z,98142.16
2023-01-31T17:30:39.997Z,98142.35
2023-01-31T17:33:16.335Z,98141.38
2023-01-31T17:35:47.366Z,98136.61
2023-01-31T17:38:15.834Z,98141.36
2023-01-31T17:40:44.777Z,98142.40
2023-01-31T17:43:17.944Z,98143.88
2023-01-31T17:45:46.244Z,98144.90
2023-01-31T17:48:25.682Z,98148.10
2023-01-31T17:50:55.838Z,98147.77
2023-01-31T17:53:24.822Z,98155.36
2023-01-31T17:55:55.192Z,98159.27
2023-01-31T17:58:24.254Z,98162.27
2023-01-31T18:00:52.631Z,98159.34
2023-01-31T18:03:25.387Z,98158.91
2023-01-31T18:05:54.792Z,98159.81
2023-01-31T18:08:24.080Z,98161.77
2023-01-31T18:10:52.663Z,98163.48
2023-01-31T18:13:22.168Z,98162.61
2023-01-31T18:15:50.903Z,98157.65
2023-01-31T18:18:19.637Z,98157.09
2023-01-31T18:20:49.653Z,98159.33
2023-01-31T18:23:18.030Z,98158.11
2023-01-31T18:25:47.128Z,98154.06
2023-01-31T18:28:15.504Z,98160.02
2023-01-31T18:30:44.535Z,98159.62
2023-01-31T18:33:13.091Z,98161.33
2023-01-31T18:35:41.573Z,98163.33
2023-01-31T18:38:10.253Z,98167.98
2023-01-31T18:40:39.864Z,98172.84
2023-01-31T18:43:09.062Z,98166.85
2023-01-31T18:45:38.050Z,98167.23
2023-01-31T18:48:06.726Z,98173.08
2023-01-31T18:50:35.321Z,98172.94
2023-01-31T18:53:05.123Z,98167.83
2023-01-31T18:55:33.613Z,98175.17
2023-01-31T18:58:02.699Z,98178.32
2023-01-31T19:00:31.445Z,98174.55
2023-01-31T19:03:00.094Z,98177.03
2023-01-31T19:05:29.004Z,98178.45
2023-01-31T19:07:57.749Z,98178.15
2023-01-31T19:10:26.450Z,98179.69
2023-01-31T19:12:56.242Z,98176.05
2023-01-31T19:15:24.891Z,98173.49
2023-01-31T19:17:54.420Z,98173.76
2023-01-31T19:20:23.449Z,98170.20
2023-01-31T19:22:52.642Z,98170.91
2023-01-31T19:25:21.349Z,98171.71
2023-01-31T19:27:50.507Z,98166.77
2023-01-31T19:30:19.043Z,98168.23
2023-01-31T19:32:50.137Z,98171.83
2023-01-31T19:35:18.945Z,98170.62
2023-01-31T19:37:47.835Z,98166.55
2023-01-31T19:40:17.011Z,98171.20
2023-01-31T19:42:46.820Z,98173.42
2023-01-31T19:45:21.755Z,98174.00
2023-01-31T19:47:52.074Z,98169.78
2023-01-31T19:50:21.478Z,98172.25
2023-01-31T19:52:50.467Z,98170.02
2023-01-31T19:55:19.522Z,98171.09
2023-01-31T19:57:48.974Z,98168.09
2023-01-31T20:00:18.102Z,98169.31
2023-01-31T20:02:49.721Z,98173.05
2023-01-31T20:05:18.576Z,98166.88
2023-01-31T20:07:49.871Z,98168.80
2023-01-31T20:10:19.479Z,98168.48
2023-01-31T20:12:49.742Z,98158.73
2023-01-31T20:15:18.473Z,98166.09
2023-01-31T20:17:46.971Z,98166.41
2023-01-31T20:20:15.736Z,98171.25
2023-01-31T20:22:44.731Z,98170.73
2023-01-31T20:25:13.531Z,98176.11
2023-01-31T20:27:42.099Z,98175.27
2023-01-31T20:30:12.055Z,98174.48
2023-01-31T20:32:41.832Z,98172.93
2023-01-31T20:35:10.519Z,98174.11
2023-01-31T20:37:40.467Z,98178.72
2023-01-31T20:40:09.762Z,98171.98
2023-01-31T20:42:38.315Z,98163.84
2023-01-31T20:45:07.835Z,98169.44
2023-01-31T20:47:36.499Z,98164.84
2023-01-31T20:50:05.805Z,98167.89
2023-01-31T20:52:34.298Z,98165.38
2023-01-31T20:55:02.962Z,98167.84
2023-01-31T20:57:31.855Z,98166.19
2023-01-31T21:00:00.248Z,98174.09
2023-01-31T21:02:29.162Z,98175.67
2023-01-31T21:04:57.808Z,98179.75
2023-01-31T21:07:26.511Z,98178.37
2023-01-31T21:09:55.489Z,98171.17
2023-01-31T21:12:24.173Z,98173.77
2023-01-31T21:14:53.379Z,98162.70
2023-01-31T21:17:37.805Z,98162.60
2023-01-31T21:20:10.906Z,98165.10
2023-01-31T21:22:39.192Z,98165.10
2023-01-31T21:25:09.451Z,98162.61
2023-01-31T21:27:38.189Z,98161.84
2023-01-31T21:30:07.689Z,98156.80
2023-01-31T21:32:36.530Z,98158.85
2023-01-31T21:35:05.908Z,98161.16
2023-01-31T21:37:34.419Z,98158.74
2023-01-31T21:40:03.283Z,98161.13
2023-01-31T21:42:32.062Z,98159.73
2023-01-31T21:45:00.785Z,98153.63
2023-01-31T21:47:29.838Z,98153.55
2023-01-31T21:49:58.622Z,98149.06
2023-01-31T21:52:27.152Z,98150.48
2023-01-31T21:54:55.602Z,98141.86
2023-01-31T21:57:25.085Z,98143.15
2023-01-31T21:59:53.584Z,98134.30
2023-01-31T22:02:22.298Z,98134.84
2023-01-31T22:04:50.962Z,98137.40
2023-01-31T22:07:19.635Z,98136.34
2023-01-31T22:09:48.461Z,98139.07
2023-01-31T22:12:17.342Z,98137.67
2023-01-31T22:14:45.991Z,98130.14
2023-01-31T22:17:14.487Z,98126.11
2023-01-31T22:19:43.375Z,98119.25
2023-01-31T22:22:11.838Z,98120.20
2023-01-31T22:24:40.727Z,98114.37
2023-01-31T22:27:09.425Z,98121.23
2023-01-31T22:29:38.236Z,98116.23
2023-01-31T22:32:08.129Z,98117.05
2023-01-31T22:34:37.053Z,98115.46
2023-01-31T22:37:05.658Z,98115.34
2023-01-31T22:39:34.096Z,98114.65
2023-01-31T22:42:04.721Z,98110.66
2023-01-31T22:44:33.492Z,98108.83
2023-01-31T22:47:02.843Z,98098.75
2023-01-31T22:49:31.584Z,98095.08
2023-01-31T22:52:00.118Z,98089.11
2023-01-31T22:54:28.776Z,98089.90
2023-01-31T22:56:57.334Z,98089.38
2023-01-31T22:59:25.804Z,98080.63
2023-01-31T23:01:54.652Z,98087.01
2023-01-31T23:04:23.814Z,98086.75
2023-01-31T23:06:52.278Z,98084.15
2023-01-31T23:09:20.960Z,98087.05
2023-01-31T23:11:50.165Z,98082.20
2023-01-31T23:14:19.045Z,98080.67
2023-01-31T23:17:06.541Z,98082.23
2023-01-31T23:19:38.156Z,98079.05
2023-01-31T23:22:07.127Z,98075.71
2023-01-31T23:24:36.226Z,98075.74
2023-01-31T23:27:04.626Z,98076.46
2023-01-31T23:29:33.792Z,98073.31
2023-01-31T23:32:02.740Z,98072.88
2023-01-31T23:34:31.287Z,98073.77
2023-01-31T23:37:00.673Z,98073.34
2023-01-31T23:39:29.156Z,98066.66
2023-01-31T23:41:57.735Z,98063.84
2023-01-31T23:44:26.216Z,98060.02
2023-01-31T23:46:54.794Z,98054.59
2023-01-31T23:49:23.493Z,98057.39
2023-01-31T23:51:52.391Z,98061.58
2023-01-31T23:54:21.054Z,98052.91
2023-01-31T23:56:49.634Z,98053.74
2023-01-31T23:59:18.115Z,98053.91
